createdAt,value
2018-04-24T00:00:07.414Z,101077.61
2018-04-24T00:05:08.735Z,101091.96
2018-04-24T00:10:10.080Z,101074.05
2018-04-24T00:15:11.410Z,101077.48
2018-04-24T00:20:12.884Z,101080.77
2018-04-24T00:25:14.207Z,101074.68
2018-04-24T00:30:15.519Z,101064.42
2018-04-24T00:35:17.626Z,101070.86
2018-04-24T00:40:19.686Z,101055.36
2018-04-24T00:45:20.994Z,101043.56
2018-04-24T00:50:22.335Z,101032.34
2018-04-24T00:55:23.682Z,101047.77
2018-04-24T01:00:25.002Z,101036.97
2018-04-24T01:05:27.088Z,101028.72
2018-04-24T01:10:29.156Z,101032.20
2018-04-24T01:15:30.480Z,101022.03
2018-04-24T01:20:31.795Z,101006.53
2018-04-24T01:25:33.115Z,101007.09
2018-04-24T01:30:34.446Z,101013.19
2018-04-24T01:35:35.793Z,101003.69
2018-04-24T01:40:38.478Z,101007.40
2018-04-24T01:45:40.552Z,101013.13
2018-04-24T01:50:41.854Z,101009.31
2018-04-24T01:55:43.207Z,101011.79
2018-04-24T02:00:44.534Z,101002.53
2018-04-24T02:05:45.881Z,100995.84
2018-04-24T02:10:47.207Z,100985.52
2018-04-24T02:15:48.522Z,100987.13
2018-04-24T02:20:50.604Z,100971.66
2018-04-24T02:25:51.937Z,100973.29
2018-04-24T02:30:53.259Z,100964.77
2018-04-24T02:35:55.308Z,100956.73
2018-04-24T02:40:57.380Z,100959.05
2018-04-24T02:45:58.735Z,100965.48
2018-04-24T02:51:00.087Z,100964.84
2018-04-24T02:56:02.167Z,100978.08
2018-04-24T03:01:03.514Z,100959.88
2018-04-24T03:06:04.835Z,100954.98
2018-04-24T03:11:06.170Z,100966.22
2018-04-24T03:16:08.282Z,100973.00
2018-04-24T03:21:10.360Z,100949.63
2018-04-24T03:26:11.691Z,100922.75
2018-04-24T03:31:13.022Z,100939.47
2018-04-24T03:36:14.366Z,100934.84
2018-04-24T03:41:15.794Z,100936.86
2018-04-24T03:46:17.135Z,100953.38
2018-04-24T03:51:19.225Z,100965.95
2018-04-24T03:56:20.570Z,100972.80
2018-04-24T04:01:21.879Z,100978.59
2018-04-24T04:06:23.222Z,100972.52
2018-04-24T04:11:24.571Z,100979.09
2018-04-24T04:16:25.910Z,100976.10
2018-04-24T04:21:45.682Z,100975.52
2018-04-24T04:26:46.994Z,100983.19
2018-04-24T04:31:48.302Z,100978.08
2018-04-24T04:36:49.630Z,100965.95
2018-04-24T04:41:50.947Z,100966.43
2018-04-24T04:46:52.279Z,100977.05
2018-04-24T04:51:53.572Z,100981.35
2018-04-24T04:56:54.894Z,100986.81
2018-04-24T05:01:56.274Z,100976.77
2018-04-24T05:06:57.611Z,100976.97
2018-04-24T05:11:58.976Z,100968.41
2018-04-24T05:17:00.267Z,100978.26
2018-04-24T05:22:01.636Z,100977.95
2018-04-24T05:27:02.988Z,100965.72
2018-04-24T05:32:04.305Z,100977.28
2018-04-24T05:37:05.631Z,100978.98
2018-04-24T05:42:06.936Z,100982.94
2018-04-24T05:47:08.978Z,100979.44
2018-04-24T05:52:10.291Z,100971.95
2018-04-24T05:57:11.619Z,100968.86
2018-04-24T06:02:12.970Z,100964.44
2018-04-24T06:07:14.290Z,100977.31
2018-04-24T06:12:15.602Z,100987.13
2018-04-24T06:17:17.658Z,100990.87
2018-04-24T06:22:18.993Z,100980.26
2018-04-24T06:27:20.323Z,100976.19
2018-04-24T06:32:21.636Z,100976.86
2018-04-24T06:37:22.962Z,100984.30
2018-04-24T06:42:25.023Z,100988.59
2018-04-24T06:47:26.368Z,100991.20
2018-04-24T06:52:27.715Z,100997.77
2018-04-24T06:57:29.052Z,100999.34
2018-04-24T07:02:30.387Z,100980.45
2018-04-24T07:07:31.710Z,100994.84
2018-04-24T07:12:33.783Z,100997.46
2018-04-24T07:17:35.099Z,100997.09
2018-04-24T07:22:37.150Z,100999.23
2018-04-24T07:27:38.470Z,101000.31
2018-04-24T07:32:39.798Z,101019.31
2018-04-24T07:37:41.888Z,101019.07
2018-04-24T07:42:43.222Z,101035.57
2018-04-24T07:47:44.549Z,101037.95
2018-04-24T07:52:45.864Z,101020.97
2018-04-24T07:57:47.947Z,101035.09
2018-04-24T08:02:49.301Z,101041.47
2018-04-24T08:07:50.617Z,101034.11
2018-04-24T08:12:51.950Z,101036.92
2018-04-24T08:17:54.826Z,101039.12
2018-04-24T08:22:56.222Z,101014.59
2018-04-24T08:27:57.494Z,101031.17
2018-04-24T08:32:58.848Z,101040.16
2018-04-24T08:38:00.190Z,101036.27
2018-04-24T08:43:01.520Z,101020.09
2018-04-24T08:48:03.637Z,101019.20
2018-04-24T08:53:04.957Z,101014.43
2018-04-24T08:58:06.274Z,101020.91
2018-04-24T09:03:07.667Z,101031.04
2018-04-24T09:08:09.016Z,101052.12
2018-04-24T09:13:10.345Z,101060.83
2018-04-24T09:18:11.665Z,101066.20
2018-04-24T09:23:13.024Z,101062.62
2018-04-24T09:28:14.377Z,101067.31
2018-04-24T09:33:15.722Z,101064.50
2018-04-24T09:38:17.792Z,101073.05
2018-04-24T09:43:19.126Z,101077.70
2018-04-24T09:48:21.183Z,101068.00
2018-04-24T09:53:22.528Z,101091.28
2018-04-24T09:58:24.601Z,101093.82
2018-04-24T10:03:25.935Z,101081.06
2018-04-24T10:08:27.278Z,101062.02
2018-04-24T10:13:28.630Z,101078.95
2018-04-24T10:18:29.954Z,101076.95
2018-04-24T10:23:31.273Z,101075.97
2018-04-24T10:28:32.596Z,101067.25
2018-04-24T10:33:33.951Z,101044.02
2018-04-24T10:38:35.286Z,101047.02
2018-04-24T10:43:36.716Z,101058.71
2018-04-24T10:48:38.025Z,101051.29
2018-04-24T10:53:40.073Z,101055.34
2018-04-24T10:58:41.419Z,101058.02
2018-04-24T11:03:43.494Z,101058.53
2018-04-24T11:08:44.819Z,101062.92
2018-04-24T11:13:46.895Z,101065.06
2018-04-24T11:18:48.218Z,101046.72
2018-04-24T11:23:50.280Z,101063.71
2018-04-24T11:28:51.673Z,101045.14
2018-04-24T11:33:53.008Z,101042.83
2018-04-24T11:38:55.084Z,101059.18
2018-04-24T11:43:56.422Z,101068.45
2018-04-24T11:48:57.769Z,101069.05
2018-04-24T11:53:59.094Z,101076.92
2018-04-24T11:59:00.414Z,101093.59
2018-04-24T12:04:01.728Z,101089.18
2018-04-24T12:09:03.111Z,101093.54
2018-04-24T12:14:04.474Z,101083.38
2018-04-24T12:19:05.822Z,101075.86
2018-04-24T12:24:07.878Z,101065.20
2018-04-24T12:29:09.224Z,101066.09
2018-04-24T12:34:11.283Z,101074.16
2018-04-24T12:39:12.629Z,101064.64
2018-04-24T12:44:13.965Z,101068.52
2018-04-24T12:49:15.323Z,101066.78
2018-04-24T12:54:16.741Z,101061.19
2018-04-24T12:59:19.133Z,101057.02
2018-04-24T13:04:21.324Z,101051.74
2018-04-24T13:09:22.692Z,101051.85
2018-04-24T13:14:24.013Z,101039.28
2018-04-24T13:19:25.365Z,101047.45
2018-04-24T13:24:26.705Z,101041.19
2018-04-24T13:29:28.030Z,101037.70
2018-04-24T13:34:29.367Z,101042.08
2018-04-24T13:39:30.698Z,101042.86
2018-04-24T13:44:32.015Z,101031.28
2018-04-24T13:49:33.355Z,101028.47
2018-04-24T13:54:34.787Z,101033.22
2018-04-24T13:59:36.119Z,101031.95
2018-04-24T14:04:37.460Z,101019.74
2018-04-24T14:09:38.782Z,101019.70
2018-04-24T14:14:40.862Z,101017.59
2018-04-24T14:19:42.181Z,101018.44
2018-04-24T14:24:44.239Z,101011.58
2018-04-24T14:29:45.555Z,101010.67
2018-04-24T14:34:46.921Z,100997.50
2018-04-24T14:39:48.250Z,100996.99
2018-04-24T14:44:50.339Z,100988.26
2018-04-24T14:49:51.675Z,100984.77
2018-04-24T14:54:53.035Z,100984.00
2018-04-24T14:59:55.090Z,100984.03
2018-04-24T15:04:56.415Z,100973.38
2018-04-24T15:09:57.735Z,100971.45
2018-04-24T15:14:59.083Z,100955.19
2018-04-24T15:20:00.400Z,100955.51
2018-04-24T15:25:01.734Z,100957.44
2018-04-24T15:30:03.063Z,100965.69
2018-04-24T15:35:05.259Z,100958.86
2018-04-24T15:40:06.543Z,100957.01
2018-04-24T15:45:07.867Z,100956.32
2018-04-24T15:50:09.204Z,100946.57
2018-04-24T15:55:10.529Z,100950.69
2018-04-24T16:00:12.603Z,100951.51
2018-04-24T16:05:13.945Z,100941.60
2018-04-24T16:10:15.338Z,100934.54
2018-04-24T16:15:16.715Z,100936.30
2018-04-24T16:20:18.827Z,100925.54
2018-04-24T16:25:20.175Z,100930.05
2018-04-24T16:30:21.502Z,100928.62
2018-04-24T16:35:22.839Z,100926.23
2018-04-24T16:40:24.199Z,100929.00
2018-04-24T16:45:25.533Z,100919.18
2018-04-24T16:50:26.878Z,100911.69
2018-04-24T16:55:28.231Z,100906.95
2018-04-24T17:00:30.334Z,100896.33
2018-04-24T17:05:31.639Z,100888.84
2018-04-24T17:10:33.031Z,100887.47
2018-04-24T17:15:35.716Z,100878.14
2018-04-24T17:20:37.884Z,100876.59
2018-04-24T17:25:39.826Z,100874.10
2018-04-24T17:30:41.205Z,100871.11
2018-04-24T17:35:42.519Z,100877.97
2018-04-24T17:40:43.883Z,100871.17
2018-04-24T17:45:45.282Z,100863.79
2018-04-24T17:50:46.686Z,100856.19
2018-04-24T17:55:48.062Z,100853.98
2018-04-24T18:00:49.427Z,100858.03
2018-04-24T18:05:50.784Z,100848.75
2018-04-24T18:10:52.150Z,100847.61
2018-04-24T18:15:53.473Z,100847.83
2018-04-24T18:20:55.526Z,100834.00
2018-04-24T18:25:56.859Z,100844.92
2018-04-24T18:30:59.029Z,100833.70
2018-04-24T18:36:00.343Z,100831.09
2018-04-24T18:41:01.676Z,100810.19
2018-04-24T18:46:03.024Z,100817.32
2018-04-24T18:51:04.566Z,100814.95
2018-04-24T18:56:05.881Z,100820.05
2018-04-24T19:01:07.267Z,100822.11
2018-04-24T19:06:08.605Z,100793.88
2018-04-24T19:11:10.765Z,100794.84
2018-04-24T19:16:13.070Z,100797.33
2018-04-24T19:21:15.408Z,100799.27
2018-04-24T19:26:16.799Z,100793.06
2018-04-24T19:31:24.445Z,100774.25
2018-04-24T19:36:25.819Z,100755.75
2018-04-24T19:41:34.112Z,100745.39
2018-04-24T19:46:36.203Z,100758.55
2018-04-24T19:51:37.530Z,100760.48
2018-04-24T19:56:38.891Z,100752.34
2018-04-24T20:01:41.014Z,100759.03
2018-04-24T20:06:43.110Z,100755.32
2018-04-24T20:11:45.196Z,100742.41
2018-04-24T20:16:46.640Z,100739.71
2018-04-24T20:21:47.978Z,100733.81
2018-04-24T20:26:49.317Z,100721.37
2018-04-24T20:31:50.676Z,100727.27
2018-04-24T20:36:52.745Z,100715.37
2018-04-24T20:41:54.068Z,100710.40
2018-04-24T20:46:55.386Z,100701.34
2018-04-24T20:51:56.822Z,100703.55
2018-04-24T20:56:58.345Z,100697.31
2018-04-24T21:02:00.482Z,100694.39
2018-04-24T21:07:01.816Z,100698.20
2018-04-24T21:12:03.170Z,100683.91
2018-04-24T21:17:04.502Z,100680.48
2018-04-24T21:22:05.997Z,100675.00
2018-04-24T21:27:07.330Z,100660.84
2018-04-24T21:32:08.639Z,100657.08
2018-04-24T21:37:09.954Z,100638.92
2018-04-24T21:42:11.285Z,100642.64
2018-04-24T21:47:12.593Z,100626.70
2018-04-24T21:52:13.916Z,100620.63
2018-04-24T21:57:15.270Z,100604.11
2018-04-24T22:02:16.607Z,100596.86
2018-04-24T22:07:17.926Z,100586.17
2018-04-24T22:12:20.002Z,100567.64
2018-04-24T22:17:21.323Z,100560.67
2018-04-24T22:22:23.394Z,100556.55
2018-04-24T22:27:24.732Z,100545.75
2018-04-24T22:32:26.785Z,100541.98
2018-04-24T22:37:28.116Z,100535.10
2018-04-24T22:42:30.175Z,100530.47
2018-04-24T22:47:31.510Z,100512.61
2018-04-24T22:52:33.558Z,100504.67
2018-04-24T22:57:34.892Z,100509.30
2018-04-24T23:02:36.210Z,100499.98
2018-04-24T23:07:37.551Z,100480.31
2018-04-24T23:12:57.345Z,100473.99
2018-04-24T23:18:17.184Z,100459.92
2018-04-24T23:23:18.511Z,100464.08
2018-04-24T23:28:19.839Z,100446.59
2018-04-24T23:33:21.174Z,100434.25
2018-04-24T23:38:22.495Z,100419.88
2018-04-24T23:43:24.571Z,100416.41
2018-04-24T23:48:25.934Z,100396.13
2018-04-24T23:53:27.273Z,100389.28
2018-04-24T23:58:28.607Z,100381.12
